sensor_id;sensor_type;location;lat;lon;timestamp;P1;durP1;ratioP1;P2;durP2;ratioP2
50591;SDS011;36548;50.506;30.834;2023-03-11T00:00:33;9.00;;;6.30;;
50591;SDS011;36548;50.506;30.834;2023-03-11T00:01:45;7.48;;;5.15;;
50591;SDS011;36548;50.506;30.834;2023-03-11T00:02:57;8.10;;;6.20;;
50591;SDS011;36548;50.506;30.834;2023-03-11T00:04:07;8.57;;;6.30;;
50591;SDS011;36548;50.506;30.834;2023-03-11T00:05:21;9.98;;;6.48;;
50591;SDS011;36548;50.506;30.834;2023-03-11T00:06:30;7.20;;;6.35;;
50591;SDS011;36548;50.506;30.834;2023-03-11T00:07:39;8.20;;;7.07;;
50591;SDS011;36548;50.506;30.834;2023-03-11T00:08:48;12.50;;;7.70;;
50591;SDS011;36548;50.506;30.834;2023-03-11T00:09:59;8.45;;;6.95;;
50591;SDS011;36548;50.506;30.834;2023-03-11T00:12:23;9.32;;;7.45;;
50591;SDS011;36548;50.506;30.834;2023-03-11T00:13:44;8.77;;;7.37;;
50591;SDS011;36548;50.506;30.834;2023-03-11T00:14:53;8.03;;;6.88;;
50591;SDS011;36548;50.506;30.834;2023-03-11T00:16:03;8.15;;;6.45;;
50591;SDS011;36548;50.506;30.834;2023-03-11T00:17:13;7.50;;;6.10;;
50591;SDS011;36548;50.506;30.834;2023-03-11T00:18:22;7.92;;;6.05;;
50591;SDS011;36548;50.506;30.834;2023-03-11T00:19:35;6.90;;;5.12;;
50591;SDS011;36548;50.506;30.834;2023-03-11T00:20:44;8.77;;;5.93;;
50591;SDS011;36548;50.506;30.834;2023-03-11T00:21:55;8.35;;;5.50;;
50591;SDS011;36548;50.506;30.834;2023-03-11T00:23:06;10.95;;;5.70;;
50591;SDS011;36548;50.506;30.834;2023-03-11T00:24:15;6.30;;;5.55;;
50591;SDS011;36548;50.506;30.834;2023-03-11T00:25:26;7.77;;;5.35;;
50591;SDS011;36548;50.506;30.834;2023-03-11T00:26:37;7.47;;;5.40;;
50591;SDS011;36548;50.506;30.834;2023-03-11T00:27:47;7.45;;;5.25;;
50591;SDS011;36548;50.506;30.834;2023-03-11T00:28:56;6.58;;;5.40;;
50591;SDS011;36548;50.506;30.834;2023-03-11T00:30:06;5.98;;;5.38;;
50591;SDS011;36548;50.506;30.834;2023-03-11T00:31:17;7.02;;;5.62;;
50591;SDS011;36548;50.506;30.834;2023-03-11T00:32:26;6.88;;;5.62;;
50591;SDS011;36548;50.506;30.834;2023-03-11T00:33:35;8.25;;;6.23;;
50591;SDS011;36548;50.506;30.834;2023-03-11T00:34:44;6.85;;;6.12;;
50591;SDS011;36548;50.506;30.834;2023-03-11T00:35:54;7.87;;;6.70;;
50591;SDS011;36548;50.506;30.834;2023-03-11T00:37:03;8.13;;;6.87;;
50591;SDS011;36548;50.506;30.834;2023-03-11T00:38:13;8.77;;;6.68;;
50591;SDS011;36548;50.506;30.834;2023-03-11T00:39:23;8.25;;;7.05;;
50591;SDS011;36548;50.506;30.834;2023-03-11T00:40:38;8.85;;;7.75;;
50591;SDS011;36548;50.506;30.834;2023-03-11T00:41:47;9.30;;;7.68;;
50591;SDS011;36548;50.506;30.834;2023-03-11T00:42:56;8.67;;;7.60;;
50591;SDS011;36548;50.506;30.834;2023-03-11T00:44:06;7.62;;;6.85;;
50591;SDS011;36548;50.506;30.834;2023-03-11T00:45:14;5.92;;;5.30;;
50591;SDS011;36548;50.506;30.834;2023-03-11T00:46:24;6.98;;;6.15;;
50591;SDS011;36548;50.506;30.834;2023-03-11T00:47:40;6.62;;;5.93;;
50591;SDS011;36548;50.506;30.834;2023-03-11T00:48:50;6.73;;;5.78;;
50591;SDS011;36548;50.506;30.834;2023-03-11T00:50:06;7.10;;;5.90;;
50591;SDS011;36548;50.506;30.834;2023-03-11T00:51:19;7.23;;;5.33;;
50591;SDS011;36548;50.506;30.834;2023-03-11T00:52:28;7.23;;;5.82;;
50591;SDS011;36548;50.506;30.834;2023-03-11T00:53:38;9.68;;;6.50;;
50591;SDS011;36548;50.506;30.834;2023-03-11T00:54:49;6.00;;;5.40;;
50591;SDS011;36548;50.506;30.834;2023-03-11T00:56:04;5.90;;;5.00;;
50591;SDS011;36548;50.506;30.834;2023-03-11T00:57:20;6.02;;;5.18;;
50591;SDS011;36548;50.506;30.834;2023-03-11T00:58:35;5.83;;;5.05;;
50591;SDS011;36548;50.506;30.834;2023-03-11T00:59:45;6.53;;;5.50;;
50591;SDS011;36548;50.506;30.834;2023-03-11T01:00:53;7.42;;;6.00;;
50591;SDS011;36548;50.506;30.834;2023-03-11T01:02:03;7.27;;;6.18;;
50591;SDS011;36548;50.506;30.834;2023-03-11T01:03:14;8.25;;;6.62;;
50591;SDS011;36548;50.506;30.834;2023-03-11T01:04:25;8.25;;;6.23;;
50591;SDS011;36548;50.506;30.834;2023-03-11T01:05:34;7.68;;;6.82;;
50591;SDS011;36548;50.506;30.834;2023-03-11T01:06:44;7.02;;;6.27;;
50591;SDS011;36548;50.506;30.834;2023-03-11T01:07:54;8.48;;;7.00;;
50591;SDS011;36548;50.506;30.834;2023-03-11T01:09:04;8.35;;;7.27;;
50591;SDS011;36548;50.506;30.834;2023-03-11T01:10:13;8.68;;;7.30;;
50591;SDS011;36548;50.506;30.834;2023-03-11T01:11:23;7.55;;;6.00;;
50591;SDS011;36548;50.506;30.834;2023-03-11T01:12:33;7.27;;;6.55;;
50591;SDS011;36548;50.506;30.834;2023-03-11T01:13:42;6.80;;;5.98;;
50591;SDS011;36548;50.506;30.834;2023-03-11T01:14:51;7.70;;;6.17;;
50591;SDS011;36548;50.506;30.834;2023-03-11T01:16:00;7.05;;;5.45;;
50591;SDS011;36548;50.506;30.834;2023-03-11T01:17:10;8.70;;;5.92;;
50591;SDS011;36548;50.506;30.834;2023-03-11T01:18:19;6.10;;;5.35;;
50591;SDS011;36548;50.506;30.834;2023-03-11T01:19:30;6.78;;;5.15;;
50591;SDS011;36548;50.506;30.834;2023-03-11T01:20:39;6.60;;;5.72;;
50591;SDS011;36548;50.506;30.834;2023-03-11T01:21:48;6.57;;;5.62;;
50591;SDS011;36548;50.506;30.834;2023-03-11T01:22:57;6.53;;;5.48;;
50591;SDS011;36548;50.506;30.834;2023-03-11T01:25:19;6.52;;;5.08;;
50591;SDS011;36548;50.506;30.834;2023-03-11T01:26:31;5.97;;;4.70;;
50591;SDS011;36548;50.506;30.834;2023-03-11T01:27:40;6.42;;;5.68;;
50591;SDS011;36548;50.506;30.834;2023-03-11T01:28:49;7.27;;;5.95;;
50591;SDS011;36548;50.506;30.834;2023-03-11T01:30:00;7.22;;;6.00;;
50591;SDS011;36548;50.506;30.834;2023-03-11T01:31:09;6.97;;;6.08;;
50591;SDS011;36548;50.506;30.834;2023-03-11T01:32:19;8.58;;;6.70;;
50591;SDS011;36548;50.506;30.834;2023-03-11T01:33:28;7.72;;;6.93;;
50591;SDS011;36548;50.506;30.834;2023-03-11T01:34:38;10.57;;;8.77;;
50591;SDS011;36548;50.506;30.834;2023-03-11T01:35:48;10.60;;;8.55;;
50591;SDS011;36548;50.506;30.834;2023-03-11T01:36:57;9.70;;;8.63;;
50591;SDS011;36548;50.506;30.834;2023-03-11T01:38:13;10.15;;;8.43;;
50591;SDS011;36548;50.506;30.834;2023-03-11T01:40:35;11.15;;;8.20;;
50591;SDS011;36548;50.506;30.834;2023-03-11T01:41:48;10.12;;;7.35;;
50591;SDS011;36548;50.506;30.834;2023-03-11T01:43:04;9.52;;;7.02;;
50591;SDS011;36548;50.506;30.834;2023-03-11T01:44:15;10.07;;;6.77;;
50591;SDS011;36548;50.506;30.834;2023-03-11T01:48:21;9.36;;;6.16;;
50591;SDS011;36548;50.506;30.834;2023-03-11T01:49:31;9.62;;;7.08;;
50591;SDS011;36548;50.506;30.834;2023-03-11T01:50:43;8.72;;;6.47;;
50591;SDS011;36548;50.506;30.834;2023-03-11T01:51:55;9.42;;;6.32;;
50591;SDS011;36548;50.506;30.834;2023-03-11T01:53:08;6.75;;;5.95;;
50591;SDS011;36548;50.506;30.834;2023-03-11T01:54:19;9.87;;;7.03;;
50591;SDS011;36548;50.506;30.834;2023-03-11T01:55:33;8.75;;;6.05;;
50591;SDS011;36548;50.506;30.834;2023-03-11T01:56:43;8.27;;;6.63;;
50591;SDS011;36548;50.506;30.834;2023-03-11T01:57:53;7.22;;;5.43;;
50591;SDS011;36548;50.506;30.834;2023-03-11T01:59:03;8.20;;;6.40;;
50591;SDS011;36548;50.506;30.834;2023-03-11T02:00:15;8.40;;;6.83;;
50591;SDS011;36548;50.506;30.834;2023-03-11T02:01:32;10.43;;;7.60;;
50591;SDS011;36548;50.506;30.834;2023-03-11T02:02:49;8.63;;;6.95;;
50591;SDS011;36548;50.506;30.834;2023-03-11T02:04:06;9.87;;;7.10;;
50591;SDS011;36548;50.506;30.834;2023-03-11T02:05:16;10.97;;;8.12;;
50591;SDS011;36548;50.506;30.834;2023-03-11T02:06:29;8.98;;;6.83;;
50591;SDS011;36548;50.506;30.834;2023-03-11T02:07:40;11.62;;;8.03;;
50591;SDS011;36548;50.506;30.834;2023-03-11T02:08:51;10.90;;;8.47;;
50591;SDS011;36548;50.506;30.834;2023-03-11T02:10:01;10.30;;;7.05;;
50591;SDS011;36548;50.506;30.834;2023-03-11T02:11:14;9.75;;;7.50;;
50591;SDS011;36548;50.506;30.834;2023-03-11T02:12:23;10.57;;;7.62;;
50591;SDS011;36548;50.506;30.834;2023-03-11T02:13:42;8.08;;;6.33;;
50591;SDS011;36548;50.506;30.834;2023-03-11T02:16:04;7.35;;;6.60;;
50591;SDS011;36548;50.506;30.834;2023-03-11T02:17:14;7.72;;;6.35;;
50591;SDS011;36548;50.506;30.834;2023-03-11T02:18:24;9.15;;;6.30;;
50591;SDS011;36548;50.506;30.834;2023-03-11T02:22:23;9.23;;;6.45;;
50591;SDS011;36548;50.506;30.834;2023-03-11T02:23:39;9.40;;;7.07;;
50591;SDS011;36548;50.506;30.834;2023-03-11T02:28:06;10.08;;;8.03;;
50591;SDS011;36548;50.506;30.834;2023-03-11T02:29:18;9.87;;;8.33;;
50591;SDS011;36548;50.506;30.834;2023-03-11T02:30:29;11.68;;;8.87;;
50591;SDS011;36548;50.506;30.834;2023-03-11T02:31:41;11.03;;;9.20;;
50591;SDS011;36548;50.506;30.834;2023-03-11T02:32:57;10.38;;;8.78;;
50591;SDS011;36548;50.506;30.834;2023-03-11T02:34:10;12.03;;;9.50;;
50591;SDS011;36548;50.506;30.834;2023-03-11T02:35:28;13.37;;;10.12;;
50591;SDS011;36548;50.506;30.834;2023-03-11T02:36:41;11.90;;;9.17;;
50591;SDS011;36548;50.506;30.834;2023-03-11T02:37:52;11.78;;;7.97;;
50591;SDS011;36548;50.506;30.834;2023-03-11T02:39:03;9.25;;;7.75;;
50591;SDS011;36548;50.506;30.834;2023-03-11T02:41:44;8.85;;;7.37;;
50591;SDS011;36548;50.506;30.834;2023-03-11T02:42:55;11.72;;;7.92;;
50591;SDS011;36548;50.506;30.834;2023-03-11T02:44:07;8.40;;;7.25;;
50591;SDS011;36548;50.506;30.834;2023-03-11T02:45:20;8.90;;;7.95;;
50591;SDS011;36548;50.506;30.834;2023-03-11T02:46:32;11.13;;;7.22;;
50591;SDS011;36548;50.506;30.834;2023-03-11T02:47:49;11.12;;;8.13;;
50591;SDS011;36548;50.506;30.834;2023-03-11T02:49:00;9.15;;;6.78;;
50591;SDS011;36548;50.506;30.834;2023-03-11T02:50:11;9.70;;;7.70;;
50591;SDS011;36548;50.506;30.834;2023-03-11T02:51:25;8.28;;;7.00;;
50591;SDS011;36548;50.506;30.834;2023-03-11T02:52:35;8.70;;;7.05;;
50591;SDS011;36548;50.506;30.834;2023-03-11T02:53:46;7.50;;;6.65;;
50591;SDS011;36548;50.506;30.834;2023-03-11T02:54:58;9.87;;;8.50;;
50591;SDS011;36548;50.506;30.834;2023-03-11T02:56:08;9.60;;;8.35;;
50591;SDS011;36548;50.506;30.834;2023-03-11T02:57:18;10.05;;;8.78;;
50591;SDS011;36548;50.506;30.834;2023-03-11T02:58:29;11.70;;;9.63;;
50591;SDS011;36548;50.506;30.834;2023-03-11T02:59:39;11.43;;;9.33;;
50591;SDS011;36548;50.506;30.834;2023-03-11T03:00:49;10.90;;;9.10;;
50591;SDS011;36548;50.506;30.834;2023-03-11T03:02:04;11.62;;;10.12;;
50591;SDS011;36548;50.506;30.834;2023-03-11T03:03:13;9.93;;;8.37;;
50591;SDS011;36548;50.506;30.834;2023-03-11T03:04:23;10.30;;;8.40;;
50591;SDS011;36548;50.506;30.834;2023-03-11T03:05:33;9.83;;;7.90;;
50591;SDS011;36548;50.506;30.834;2023-03-11T03:06:43;8.95;;;7.45;;
50591;SDS011;36548;50.506;30.834;2023-03-11T03:07:51;9.35;;;7.52;;
50591;SDS011;36548;50.506;30.834;2023-03-11T03:09:00;9.52;;;7.37;;
50591;SDS011;36548;50.506;30.834;2023-03-11T03:10:13;9.22;;;7.58;;
50591;SDS011;36548;50.506;30.834;2023-03-11T03:11:23;8.32;;;7.38;;
50591;SDS011;36548;50.506;30.834;2023-03-11T03:12:33;10.32;;;8.30;;
50591;SDS011;36548;50.506;30.834;2023-03-11T03:13:42;8.63;;;7.17;;
50591;SDS011;36548;50.506;30.834;2023-03-11T03:14:51;9.10;;;7.07;;
50591;SDS011;36548;50.506;30.834;2023-03-11T03:16:01;10.10;;;7.57;;
50591;SDS011;36548;50.506;30.834;2023-03-11T03:17:10;8.70;;;7.70;;
50591;SDS011;36548;50.506;30.834;2023-03-11T03:18:20;9.00;;;7.48;;
50591;SDS011;36548;50.506;30.834;2023-03-11T03:19:30;10.33;;;7.78;;
50591;SDS011;36548;50.506;30.834;2023-03-11T03:20:45;10.37;;;8.45;;
50591;SDS011;36548;50.506;30.834;2023-03-11T03:21:56;9.77;;;8.18;;
50591;SDS011;36548;50.506;30.834;2023-03-11T03:23:05;10.88;;;9.10;;
50591;SDS011;36548;50.506;30.834;2023-03-11T03:24:14;12.53;;;9.33;;
50591;SDS011;36548;50.506;30.834;2023-03-11T03:25:30;11.33;;;9.43;;
50591;SDS011;36548;50.506;30.834;2023-03-11T03:27:50;12.37;;;10.00;;
50591;SDS011;36548;50.506;30.834;2023-03-11T03:28:58;13.98;;;11.35;;
50591;SDS011;36548;50.506;30.834;2023-03-11T03:30:08;12.18;;;8.78;;
50591;SDS011;36548;50.506;30.834;2023-03-11T03:31:19;13.43;;;9.23;;
50591;SDS011;36548;50.506;30.834;2023-03-11T03:32:29;11.87;;;8.63;;
50591;SDS011;36548;50.506;30.834;2023-03-11T03:33:39;10.85;;;8.70;;
50591;SDS011;36548;50.506;30.834;2023-03-11T03:34:49;10.90;;;8.60;;
50591;SDS011;36548;50.506;30.834;2023-03-11T03:35:59;10.48;;;8.10;;
50591;SDS011;36548;50.506;30.834;2023-03-11T03:37:10;10.75;;;8.60;;
50591;SDS011;36548;50.506;30.834;2023-03-11T03:39:39;9.50;;;7.87;;
50591;SDS011;36548;50.506;30.834;2023-03-11T03:40:48;9.80;;;8.12;;
50591;SDS011;36548;50.506;30.834;2023-03-11T03:41:59;8.25;;;7.35;;
50591;SDS011;36548;50.506;30.834;2023-03-11T03:43:09;11.45;;;8.55;;
50591;SDS011;36548;50.506;30.834;2023-03-11T03:44:25;11.85;;;9.28;;
50591;SDS011;36548;50.506;30.834;2023-03-11T03:45:34;9.65;;;8.03;;
50591;SDS011;36548;50.506;30.834;2023-03-11T03:46:43;9.80;;;8.55;;
50591;SDS011;36548;50.506;30.834;2023-03-11T03:47:53;10.25;;;8.18;;
50591;SDS011;36548;50.506;30.834;2023-03-11T03:50:15;11.07;;;9.53;;
50591;SDS011;36548;50.506;30.834;2023-03-11T03:51:25;12.35;;;10.20;;
50591;SDS011;36548;50.506;30.834;2023-03-11T03:52:39;11.45;;;10.28;;
50591;SDS011;36548;50.506;30.834;2023-03-11T03:53:49;15.22;;;11.03;;
50591;SDS011;36548;50.506;30.834;2023-03-11T03:54:58;9.83;;;8.73;;
50591;SDS011;36548;50.506;30.834;2023-03-11T03:56:09;11.50;;;9.60;;
50591;SDS011;36548;50.506;30.834;2023-03-11T03:57:20;14.30;;;11.32;;
50591;SDS011;36548;50.506;30.834;2023-03-11T03:58:29;15.15;;;13.40;;
50591;SDS011;36548;50.506;30.834;2023-03-11T03:59:39;14.42;;;12.23;;
50591;SDS011;36548;50.506;30.834;2023-03-11T04:00:48;13.98;;;11.97;;
50591;SDS011;36548;50.506;30.834;2023-03-11T04:01:58;11.40;;;9.45;;
50591;SDS011;36548;50.506;30.834;2023-03-11T04:03:09;12.17;;;9.43;;
50591;SDS011;36548;50.506;30.834;2023-03-11T04:04:20;14.60;;;11.00;;
50591;SDS011;36548;50.506;30.834;2023-03-11T04:05:29;14.30;;;9.10;;
50591;SDS011;36548;50.506;30.834;2023-03-11T04:06:39;13.88;;;10.32;;
50591;SDS011;36548;50.506;30.834;2023-03-11T04:07:49;11.73;;;10.17;;
50591;SDS011;36548;50.506;30.834;2023-03-11T04:08:58;11.15;;;9.82;;
50591;SDS011;36548;50.506;30.834;2023-03-11T04:10:12;11.95;;;9.53;;
50591;SDS011;36548;50.506;30.834;2023-03-11T04:11:21;11.05;;;9.27;;
50591;SDS011;36548;50.506;30.834;2023-03-11T04:12:31;10.62;;;9.02;;
50591;SDS011;36548;50.506;30.834;2023-03-11T04:13:41;9.38;;;8.43;;
50591;SDS011;36548;50.506;30.834;2023-03-11T04:14:52;10.95;;;8.25;;
50591;SDS011;36548;50.506;30.834;2023-03-11T04:16:02;10.65;;;8.85;;
50591;SDS011;36548;50.506;30.834;2023-03-11T04:17:19;9.92;;;8.87;;
50591;SDS011;36548;50.506;30.834;2023-03-11T04:18:29;10.05;;;8.25;;
50591;SDS011;36548;50.506;30.834;2023-03-11T04:19:40;9.80;;;8.00;;
50591;SDS011;36548;50.506;30.834;2023-03-11T04:20:51;9.90;;;8.85;;
50591;SDS011;36548;50.506;30.834;2023-03-11T04:22:01;11.15;;;8.75;;
50591;SDS011;36548;50.506;30.834;2023-03-11T04:24:20;10.85;;;9.12;;
50591;SDS011;36548;50.506;30.834;2023-03-11T04:25:29;10.45;;;9.43;;
50591;SDS011;36548;50.506;30.834;2023-03-11T04:26:39;11.53;;;9.92;;
50591;SDS011;36548;50.506;30.834;2023-03-11T04:27:52;10.75;;;9.52;;
50591;SDS011;36548;50.506;30.834;2023-03-11T04:29:01;11.15;;;9.00;;
50591;SDS011;36548;50.506;30.834;2023-03-11T04:30:13;11.43;;;10.25;;
50591;SDS011;36548;50.506;30.834;2023-03-11T04:31:24;14.70;;;11.15;;
50591;SDS011;36548;50.506;30.834;2023-03-11T04:32:33;12.28;;;9.97;;
50591;SDS011;36548;50.506;30.834;2023-03-11T04:33:43;13.50;;;11.90;;
50591;SDS011;36548;50.506;30.834;2023-03-11T04:34:54;11.85;;;10.45;;
50591;SDS011;36548;50.506;30.834;2023-03-11T04:36:04;10.70;;;9.70;;
50591;SDS011;36548;50.506;30.834;2023-03-11T04:37:16;11.85;;;9.22;;
50591;SDS011;36548;50.506;30.834;2023-03-11T04:38:32;11.53;;;9.58;;
50591;SDS011;36548;50.506;30.834;2023-03-11T04:39:44;11.90;;;9.68;;
50591;SDS011;36548;50.506;30.834;2023-03-11T04:40:53;10.45;;;9.25;;
50591;SDS011;36548;50.506;30.834;2023-03-11T04:42:06;11.02;;;8.75;;
50591;SDS011;36548;50.506;30.834;2023-03-11T04:43:15;11.42;;;9.15;;
50591;SDS011;36548;50.506;30.834;2023-03-11T04:44:25;10.62;;;8.93;;
50591;SDS011;36548;50.506;30.834;2023-03-11T04:45:34;11.90;;;9.47;;
50591;SDS011;36548;50.506;30.834;2023-03-11T04:46:48;10.27;;;8.57;;
50591;SDS011;36548;50.506;30.834;2023-03-11T04:47:57;10.97;;;8.28;;
50591;SDS011;36548;50.506;30.834;2023-03-11T04:49:07;10.75;;;8.62;;
50591;SDS011;36548;50.506;30.834;2023-03-11T04:50:17;9.85;;;8.80;;
50591;SDS011;36548;50.506;30.834;2023-03-11T04:51:26;10.63;;;8.20;;
50591;SDS011;36548;50.506;30.834;2023-03-11T04:52:37;9.72;;;8.30;;
50591;SDS011;36548;50.506;30.834;2023-03-11T04:53:47;9.30;;;7.75;;
50591;SDS011;36548;50.506;30.834;2023-03-11T04:54:56;10.30;;;9.15;;
50591;SDS011;36548;50.506;30.834;2023-03-11T04:56:06;10.50;;;9.40;;
50591;SDS011;36548;50.506;30.834;2023-03-11T04:57:17;9.58;;;8.57;;
50591;SDS011;36548;50.506;30.834;2023-03-11T04:58:32;11.58;;;9.13;;
50591;SDS011;36548;50.506;30.834;2023-03-11T04:59:41;11.93;;;10.70;;
50591;SDS011;36548;50.506;30.834;2023-03-11T05:00:51;13.08;;;11.53;;
50591;SDS011;36548;50.506;30.834;2023-03-11T05:02:01;8.90;;;7.80;;
50591;SDS011;36548;50.506;30.834;2023-03-11T05:03:11;11.85;;;9.35;;
50591;SDS011;36548;50.506;30.834;2023-03-11T05:04:21;10.74;;;9.66;;
50591;SDS011;36548;50.506;30.834;2023-03-11T05:05:31;13.07;;;10.47;;
50591;SDS011;36548;50.506;30.834;2023-03-11T05:06:41;12.93;;;10.55;;
50591;SDS011;36548;50.506;30.834;2023-03-11T05:07:50;13.13;;;10.42;;
50591;SDS011;36548;50.506;30.834;2023-03-11T05:08:58;11.05;;;9.83;;
50591;SDS011;36548;50.506;30.834;2023-03-11T05:10:08;10.62;;;9.03;;
50591;SDS011;36548;50.506;30.834;2023-03-11T05:11:19;10.58;;;8.95;;
50591;SDS011;36548;50.506;30.834;2023-03-11T05:12:29;9.68;;;8.32;;
50591;SDS011;36548;50.506;30.834;2023-03-11T05:13:38;9.60;;;8.17;;
50591;SDS011;36548;50.506;30.834;2023-03-11T05:14:47;10.42;;;9.32;;
50591;SDS011;36548;50.506;30.834;2023-03-11T05:15:58;9.80;;;8.48;;
50591;SDS011;36548;50.506;30.834;2023-03-11T05:17:09;8.35;;;7.35;;
50591;SDS011;36548;50.506;30.834;2023-03-11T05:18:21;10.17;;;8.20;;
50591;SDS011;36548;50.506;30.834;2023-03-11T05:19:30;10.30;;;8.05;;
50591;SDS011;36548;50.506;30.834;2023-03-11T05:20:42;9.07;;;8.18;;
50591;SDS011;36548;50.506;30.834;2023-03-11T05:21:52;10.73;;;9.43;;
50591;SDS011;36548;50.506;30.834;2023-03-11T05:23:01;10.95;;;9.40;;
50591;SDS011;36548;50.506;30.834;2023-03-11T05:24:11;10.00;;;8.88;;
50591;SDS011;36548;50.506;30.834;2023-03-11T05:25:21;10.97;;;9.87;;
50591;SDS011;36548;50.506;30.834;2023-03-11T05:26:31;11.35;;;8.95;;
50591;SDS011;36548;50.506;30.834;2023-03-11T05:27:40;12.10;;;10.00;;
50591;SDS011;36548;50.506;30.834;2023-03-11T05:28:51;10.50;;;9.23;;
50591;SDS011;36548;50.506;30.834;2023-03-11T05:30:06;13.35;;;10.15;;
50591;SDS011;36548;50.506;30.834;2023-03-11T05:31:16;12.93;;;10.88;;
50591;SDS011;36548;50.506;30.834;2023-03-11T05:32:27;12.35;;;10.85;;
50591;SDS011;36548;50.506;30.834;2023-03-11T05:33:42;12.35;;;10.97;;
50591;SDS011;36548;50.506;30.834;2023-03-11T05:34:52;12.95;;;11.67;;
50591;SDS011;36548;50.506;30.834;2023-03-11T05:36:08;12.68;;;11.03;;
50591;SDS011;36548;50.506;30.834;2023-03-11T05:37:20;11.08;;;9.82;;
50591;SDS011;36548;50.506;30.834;2023-03-11T05:38:31;13.15;;;11.30;;
50591;SDS011;36548;50.506;30.834;2023-03-11T05:39:40;12.20;;;10.25;;
50591;SDS011;36548;50.506;30.834;2023-03-11T05:40:51;13.88;;;11.15;;
50591;SDS011;36548;50.506;30.834;2023-03-11T05:42:06;14.80;;;10.75;;
50591;SDS011;36548;50.506;30.834;2023-03-11T05:43:16;15.20;;;12.95;;
50591;SDS011;36548;50.506;30.834;2023-03-11T05:44:26;11.55;;;10.32;;
50591;SDS011;36548;50.506;30.834;2023-03-11T05:45:36;10.65;;;9.10;;
50591;SDS011;36548;50.506;30.834;2023-03-11T05:46:46;10.08;;;8.45;;
50591;SDS011;36548;50.506;30.834;2023-03-11T05:47:55;8.60;;;7.72;;
50591;SDS011;36548;50.506;30.834;2023-03-11T05:49:06;9.60;;;8.50;;
50591;SDS011;36548;50.506;30.834;2023-03-11T05:50:17;9.18;;;7.95;;
50591;SDS011;36548;50.506;30.834;2023-03-11T05:51:26;8.27;;;7.25;;
50591;SDS011;36548;50.506;30.834;2023-03-11T05:52:37;9.88;;;8.55;;
50591;SDS011;36548;50.506;30.834;2023-03-11T05:53:47;9.27;;;8.35;;
50591;SDS011;36548;50.506;30.834;2023-03-11T05:54:58;7.70;;;6.90;;
50591;SDS011;36548;50.506;30.834;2023-03-11T05:56:08;8.47;;;7.60;;
50591;SDS011;36548;50.506;30.834;2023-03-11T05:57:18;8.57;;;7.37;;
50591;SDS011;36548;50.506;30.834;2023-03-11T05:58:28;9.15;;;7.65;;
50591;SDS011;36548;50.506;30.834;2023-03-11T06:00:48;10.52;;;8.80;;
50591;SDS011;36548;50.506;30.834;2023-03-11T06:02:04;10.10;;;7.95;;
50591;SDS011;36548;50.506;30.834;2023-03-11T06:03:13;10.20;;;9.10;;
50591;SDS011;36548;50.506;30.834;2023-03-11T06:04:23;12.96;;;10.66;;
50591;SDS011;36548;50.506;30.834;2023-03-11T06:05:32;11.47;;;9.97;;
50591;SDS011;36548;50.506;30.834;2023-03-11T06:06:41;11.98;;;9.30;;
50591;SDS011;36548;50.506;30.834;2023-03-11T06:07:50;12.30;;;10.58;;
50591;SDS011;36548;50.506;30.834;2023-03-11T06:09:01;13.20;;;11.80;;
50591;SDS011;36548;50.506;30.834;2023-03-11T06:11:22;12.75;;;11.00;;
50591;SDS011;36548;50.506;30.834;2023-03-11T06:12:33;12.40;;;11.10;;
50591;SDS011;36548;50.506;30.834;2023-03-11T06:14:01;13.53;;;11.03;;
50591;SDS011;36548;50.506;30.834;2023-03-11T06:15:11;13.15;;;11.10;;
50591;SDS011;36548;50.506;30.834;2023-03-11T06:16:22;13.58;;;11.53;;
50591;SDS011;36548;50.506;30.834;2023-03-11T06:17:33;13.75;;;12.37;;
50591;SDS011;36548;50.506;30.834;2023-03-11T06:18:42;15.15;;;11.72;;
50591;SDS011;36548;50.506;30.834;2023-03-11T06:19:52;13.48;;;12.08;;
50591;SDS011;36548;50.506;30.834;2023-03-11T06:22:13;12.25;;;9.32;;
50591;SDS011;36548;50.506;30.834;2023-03-11T06:23:21;11.33;;;8.40;;
50591;SDS011;36548;50.506;30.834;2023-03-11T06:24:31;10.62;;;8.40;;
50591;SDS011;36548;50.506;30.834;2023-03-11T06:25:40;11.58;;;9.72;;
50591;SDS011;36548;50.506;30.834;2023-03-11T06:26:51;9.63;;;8.63;;
50591;SDS011;36548;50.506;30.834;2023-03-11T06:28:00;10.32;;;8.80;;
50591;SDS011;36548;50.506;30.834;2023-03-11T06:29:16;9.67;;;8.68;;
50591;SDS011;36548;50.506;30.834;2023-03-11T06:30:25;10.10;;;9.07;;
50591;SDS011;36548;50.506;30.834;2023-03-11T06:31:43;10.05;;;7.70;;
50591;SDS011;36548;50.506;30.834;2023-03-11T06:32:52;10.00;;;8.90;;
50591;SDS011;36548;50.506;30.834;2023-03-11T06:34:02;10.33;;;8.65;;
50591;SDS011;36548;50.506;30.834;2023-03-11T06:35:14;11.20;;;9.02;;
50591;SDS011;36548;50.506;30.834;2023-03-11T06:36:30;10.02;;;8.18;;
50591;SDS011;36548;50.506;30.834;2023-03-11T06:37:39;9.52;;;8.43;;
50591;SDS011;36548;50.506;30.834;2023-03-11T06:38:50;12.40;;;9.53;;
50591;SDS011;36548;50.506;30.834;2023-03-11T06:40:00;11.82;;;9.67;;
50591;SDS011;36548;50.506;30.834;2023-03-11T06:41:11;11.07;;;9.85;;
50591;SDS011;36548;50.506;30.834;2023-03-11T06:43:37;12.30;;;10.67;;
50591;SDS011;36548;50.506;30.834;2023-03-11T06:44:48;11.73;;;10.25;;
50591;SDS011;36548;50.506;30.834;2023-03-11T06:45:57;11.83;;;10.53;;
50591;SDS011;36548;50.506;30.834;2023-03-11T06:47:09;11.65;;;10.52;;
50591;SDS011;36548;50.506;30.834;2023-03-11T06:48:18;12.00;;;10.80;;
50591;SDS011;36548;50.506;30.834;2023-03-11T06:49:28;12.63;;;10.60;;
50591;SDS011;36548;50.506;30.834;2023-03-11T06:50:39;13.50;;;12.00;;
50591;SDS011;36548;50.506;30.834;2023-03-11T06:51:48;14.15;;;11.80;;
50591;SDS011;36548;50.506;30.834;2023-03-11T06:52:57;14.33;;;12.70;;
50591;SDS011;36548;50.506;30.834;2023-03-11T06:54:08;11.87;;;10.38;;
50591;SDS011;36548;50.506;30.834;2023-03-11T06:55:19;12.43;;;10.57;;
50591;SDS011;36548;50.506;30.834;2023-03-11T06:56:29;12.57;;;10.28;;
50591;SDS011;36548;50.506;30.834;2023-03-11T06:57:40;12.08;;;9.83;;
50591;SDS011;36548;50.506;30.834;2023-03-11T06:58:52;10.02;;;8.18;;
50591;SDS011;36548;50.506;30.834;2023-03-11T07:00:01;10.65;;;9.15;;
50591;SDS011;36548;50.506;30.834;2023-03-11T07:01:20;11.47;;;9.60;;
50591;SDS011;36548;50.506;30.834;2023-03-11T07:02:33;10.90;;;9.25;;
50591;SDS011;36548;50.506;30.834;2023-03-11T07:03:44;11.15;;;9.45;;
50591;SDS011;36548;50.506;30.834;2023-03-11T07:04:54;10.18;;;7.98;;
50591;SDS011;36548;50.506;30.834;2023-03-11T07:06:03;10.92;;;9.35;;
50591;SDS011;36548;50.506;30.834;2023-03-11T07:07:14;11.88;;;9.52;;
50591;SDS011;36548;50.506;30.834;2023-03-11T07:08:30;11.92;;;9.88;;
50591;SDS011;36548;50.506;30.834;2023-03-11T07:09:40;10.83;;;8.85;;
50591;SDS011;36548;50.506;30.834;2023-03-11T07:12:24;10.67;;;8.68;;
50591;SDS011;36548;50.506;30.834;2023-03-11T07:13:39;13.75;;;8.25;;
50591;SDS011;36548;50.506;30.834;2023-03-11T07:14:49;12.07;;;9.72;;
50591;SDS011;36548;50.506;30.834;2023-03-11T07:16:07;11.27;;;9.92;;
50591;SDS011;36548;50.506;30.834;2023-03-11T07:17:25;10.67;;;9.52;;
50591;SDS011;36548;50.506;30.834;2023-03-11T07:18:36;12.15;;;10.67;;
50591;SDS011;36548;50.506;30.834;2023-03-11T07:19:46;12.45;;;10.85;;
50591;SDS011;36548;50.506;30.834;2023-03-11T07:20:55;12.78;;;10.58;;
50591;SDS011;36548;50.506;30.834;2023-03-11T07:22:04;14.37;;;12.65;;
50591;SDS011;36548;50.506;30.834;2023-03-11T07:23:13;14.50;;;12.54;;